createdAt,value
2023-02-21T00:02:43.421Z,9.00
2023-02-21T00:05:29.315Z,8.90
2023-02-21T00:08:14.889Z,8.90
2023-02-21T00:11:00.357Z,9.00
2023-02-21T00:13:46.287Z,8.80
2023-02-21T00:16:37.766Z,8.60
2023-02-21T00:19:23.390Z,8.40
2023-02-21T00:22:08.976Z,8.30
2023-02-21T00:24:54.982Z,8.30
2023-02-21T00:27:40.898Z,8.20
2023-02-21T00:30:27.431Z,8.20
2023-02-21T00:33:13.030Z,8.10
2023-02-21T00:35:58.764Z,8.00
2023-02-21T00:38:44.056Z,7.90
2023-02-21T00:41:29.325Z,8.10
2023-02-21T00:44:14.849Z,8.10
2023-02-21T00:47:00.122Z,8.20
2023-02-21T00:49:45.723Z,8.30
2023-02-21T00:52:31.673Z,8.20
2023-02-21T00:55:17.170Z,8.00
2023-02-21T00:58:03.385Z,7.90
2023-02-21T01:00:48.694Z,7.80
2023-02-21T01:03:34.023Z,7.70
2023-02-21T01:06:19.718Z,7.60
2023-02-21T01:09:06.145Z,7.50
2023-02-21T01:11:52.135Z,7.50
2023-02-21T01:14:38.133Z,7.30
2023-02-21T01:17:23.615Z,7.20
2023-02-21T01:20:09.291Z,7.30
2023-02-21T01:22:55.264Z,7.20
2023-02-21T01:25:41.076Z,7.30
2023-02-21T01:28:26.860Z,7.40
2023-02-21T01:31:12.722Z,7.40
2023-02-21T01:34:00.277Z,7.40
2023-02-21T01:36:46.803Z,7.30
2023-02-21T01:39:32.681Z,7.20
2023-02-21T01:42:19.328Z,7.30
2023-02-21T01:45:06.999Z,7.20
2023-02-21T01:47:53.813Z,7.00
2023-02-21T01:50:50.377Z,7.00
2023-02-21T01:53:40.790Z,7.00
2023-02-21T01:56:27.798Z,6.70
2023-02-21T01:59:16.900Z,6.30
2023-02-21T02:02:36.781Z,6.10
2023-02-21T02:05:24.206Z,6.10
2023-02-21T02:08:10.628Z,5.80
2023-02-21T02:10:55.918Z,5.70
2023-02-21T02:13:34.508Z,5.60
2023-02-21T02:16:41.070Z,5.60
2023-02-21T02:19:44.655Z,5.60
2023-02-21T02:22:41.771Z,5.60
2023-02-21T02:25:23.409Z,5.60
2023-02-21T02:28:00.813Z,5.60
2023-02-21T02:30:45.987Z,5.50
2023-02-21T02:33:43.110Z,5.50
2023-02-21T02:36:28.906Z,5.40
2023-02-21T02:39:31.416Z,5.20
2023-02-21T02:42:06.891Z,5.00
2023-02-21T02:44:41.643Z,5.00
2023-02-21T02:47:16.666Z,4.90
2023-02-21T02:49:45.482Z,4.80
2023-02-21T02:52:12.555Z,4.70
2023-02-21T02:54:39.506Z,4.70
2023-02-21T02:57:12.952Z,4.60
2023-02-21T02:59:45.460Z,4.60
2023-02-21T03:02:56.272Z,4.70
2023-02-21T03:05:36.070Z,4.60
2023-02-21T03:08:31.450Z,4.50
2023-02-21T03:11:14.094Z,4.50
2023-02-21T03:13:47.600Z,4.50
2023-02-21T03:16:27.308Z,4.60
2023-02-21T03:19:07.639Z,4.50
2023-02-21T03:22:01.606Z,4.60
2023-02-21T03:24:29.896Z,4.50
2023-02-21T03:27:06.915Z,4.40
2023-02-21T03:29:35.764Z,4.40
2023-02-21T03:32:33.483Z,4.50
2023-02-21T03:35:00.458Z,4.40
2023-02-21T03:37:38.626Z,4.40
2023-02-21T03:40:28.880Z,4.50
2023-02-21T03:42:58.673Z,4.50
2023-02-21T03:45:25.981Z,4.50
2023-02-21T03:47:53.427Z,4.60
2023-02-21T03:50:20.765Z,4.70
2023-02-21T03:52:47.779Z,4.70
2023-02-21T03:55:15.370Z,4.40
2023-02-21T03:57:42.341Z,4.10
2023-02-21T04:00:10.922Z,4.00
2023-02-21T04:02:37.891Z,3.90
2023-02-21T04:05:05.510Z,3.80
2023-02-21T04:07:32.762Z,3.70
2023-02-21T04:09:59.815Z,3.60
2023-02-21T04:12:27.223Z,3.50
2023-02-21T04:14:56.613Z,3.50
2023-02-21T04:17:23.644Z,3.60
2023-02-21T04:19:51.018Z,3.60
2023-02-21T04:22:18.464Z,3.70
2023-02-21T04:24:45.506Z,3.70
2023-02-21T04:27:12.513Z,3.60
2023-02-21T04:29:39.499Z,3.50
2023-02-21T04:32:06.525Z,3.50
2023-02-21T04:34:33.551Z,3.30
2023-02-21T04:37:00.574Z,3.10
2023-02-21T04:39:27.731Z,3.30
2023-02-21T04:41:54.765Z,3.10
2023-02-21T04:44:21.756Z,3.40
2023-02-21T04:46:48.706Z,3.30
2023-02-21T04:49:15.986Z,3.50
2023-02-21T04:51:43.034Z,3.40
2023-02-21T04:54:10.455Z,3.60
2023-02-21T04:56:39.818Z,3.70
2023-02-21T04:59:06.884Z,3.70
2023-02-21T05:01:33.962Z,3.70
2023-02-21T05:04:01.234Z,3.70
2023-02-21T05:06:30.103Z,3.60
2023-02-21T05:08:58.718Z,3.70
2023-02-21T05:11:26.600Z,3.70
2023-02-21T05:13:53.814Z,3.70
2023-02-21T05:16:21.531Z,3.80
2023-02-21T05:18:49.629Z,3.80
2023-02-21T05:21:19.374Z,4.00
2023-02-21T05:23:56.022Z,3.90
2023-02-21T05:26:31.504Z,3.90
2023-02-21T05:28:58.836Z,3.80
2023-02-21T05:31:26.093Z,3.80
2023-02-21T05:33:53.108Z,3.80
2023-02-21T05:36:20.366Z,3.90
2023-02-21T05:38:55.703Z,4.00
2023-02-21T05:41:23.587Z,3.80
2023-02-21T05:43:51.439Z,3.80
2023-02-21T05:46:27.039Z,3.80
2023-02-21T05:48:57.310Z,3.90
2023-02-21T05:51:24.752Z,3.90
2023-02-21T05:53:52.517Z,3.90
2023-02-21T05:56:20.988Z,4.10
2023-02-21T05:58:48.336Z,4.00
2023-02-21T06:01:15.675Z,4.10
2023-02-21T06:03:43.756Z,4.30
2023-02-21T06:06:10.834Z,4.10
2023-02-21T06:08:49.117Z,4.20
2023-02-21T06:11:27.104Z,4.10
2023-02-21T06:13:57.376Z,4.00
2023-02-21T06:16:25.410Z,3.80
2023-02-21T06:18:57.137Z,3.50
2023-02-21T06:21:24.254Z,3.20
2023-02-21T06:23:51.746Z,3.00
2023-02-21T06:26:19.816Z,3.00
2023-02-21T06:28:48.173Z,3.10
2023-02-21T06:31:15.533Z,3.10
2023-02-21T06:33:43.010Z,2.90
2023-02-21T06:36:17.453Z,2.90
2023-02-21T06:38:51.404Z,2.90
2023-02-21T06:41:21.567Z,3.00
2023-02-21T06:43:49.671Z,3.00
2023-02-21T06:46:29.629Z,3.10
2023-02-21T06:48:57.148Z,3.00
2023-02-21T06:51:29.620Z,2.90
2023-02-21T06:53:58.408Z,3.00
2023-02-21T06:56:25.829Z,3.20
2023-02-21T06:58:53.075Z,3.20
2023-02-21T07:01:20.992Z,2.90
2023-02-21T07:03:48.017Z,2.90
2023-02-21T07:06:15.882Z,3.00
2023-02-21T07:08:42.938Z,2.90
2023-02-21T07:11:10.474Z,2.90
2023-02-21T07:13:37.616Z,2.90
2023-02-21T07:16:05.606Z,2.90
2023-02-21T07:18:33.024Z,3.00
2023-02-21T07:21:00.287Z,3.30
2023-02-21T07:23:27.485Z,3.10
2023-02-21T07:25:54.527Z,3.20
2023-02-21T07:28:21.571Z,3.40
2023-02-21T07:30:48.773Z,3.40
2023-02-21T07:33:16.495Z,3.50
2023-02-21T07:35:43.499Z,3.60
2023-02-21T07:38:10.540Z,3.50
2023-02-21T07:40:37.511Z,3.60
2023-02-21T07:43:04.575Z,3.90
2023-02-21T07:45:31.709Z,3.60
2023-02-21T07:47:58.645Z,3.80
2023-02-21T07:50:25.702Z,3.90
2023-02-21T07:52:52.780Z,3.90
2023-02-21T07:55:19.929Z,4.00
2023-02-21T07:57:47.049Z,4.10
2023-02-21T08:00:14.955Z,4.10
2023-02-21T08:02:42.294Z,4.10
2023-02-21T08:05:10.010Z,4.10
2023-02-21T08:07:37.155Z,4.20
2023-02-21T08:10:05.088Z,4.20
2023-02-21T08:12:32.074Z,4.30
2023-02-21T08:14:59.204Z,4.40
2023-02-21T08:17:26.832Z,4.50
2023-02-21T08:19:53.847Z,4.60
2023-02-21T08:22:21.146Z,4.70
2023-02-21T08:24:51.499Z,4.80
2023-02-21T08:27:19.166Z,4.90
2023-02-21T08:29:50.148Z,4.90
2023-02-21T08:32:17.674Z,5.00
2023-02-21T08:34:51.309Z,5.10
2023-02-21T08:37:20.173Z,5.20
2023-02-21T08:39:53.632Z,5.30
2023-02-21T08:42:21.963Z,5.30
2023-02-21T08:44:49.208Z,5.50
2023-02-21T08:47:18.214Z,5.50
2023-02-21T08:49:47.643Z,5.60
2023-02-21T08:55:08.738Z,5.80
2023-02-21T08:57:35.769Z,6.00
2023-02-21T09:00:06.827Z,6.10
2023-02-21T09:02:33.863Z,6.30
2023-02-21T09:05:00.928Z,6.50
2023-02-21T09:07:30.446Z,6.60
2023-02-21T09:09:59.011Z,6.80
2023-02-21T09:12:28.383Z,6.90
2023-02-21T09:14:55.335Z,7.00
2023-02-21T09:17:22.358Z,7.10
2023-02-21T09:19:49.409Z,7.30
2023-02-21T09:22:18.466Z,7.40
2023-02-21T09:24:45.479Z,7.60
2023-02-21T09:27:12.560Z,7.80
2023-02-21T09:29:46.348Z,7.90
2023-02-21T09:32:14.678Z,8.00
2023-02-21T09:34:41.771Z,8.10
2023-02-21T09:37:08.893Z,8.30
2023-02-21T09:39:39.471Z,8.40
2023-02-21T09:42:06.902Z,8.60
2023-02-21T09:44:34.564Z,8.70
2023-02-21T09:47:06.041Z,8.70
2023-02-21T09:49:44.122Z,8.80
2023-02-21T09:52:35.915Z,9.00
2023-02-21T09:55:30.584Z,9.20
2023-02-21T09:57:57.860Z,9.40
2023-02-21T10:00:36.043Z,9.40
2023-02-21T10:03:33.560Z,9.60
2023-02-21T10:06:23.561Z,9.80
2023-02-21T10:09:27.616Z,10.00
2023-02-21T10:12:11.477Z,10.00
2023-02-21T10:14:56.972Z,10.20
2023-02-21T10:18:03.851Z,10.40
2023-02-21T10:20:52.441Z,10.60
2023-02-21T10:23:32.759Z,10.70
2023-02-21T10:26:07.802Z,11.20
2023-02-21T10:28:35.610Z,11.20
2023-02-21T10:31:13.432Z,11.30
2023-02-21T10:33:41.019Z,11.30
2023-02-21T10:36:18.969Z,11.40
2023-02-21T10:39:17.679Z,11.70
2023-02-21T10:41:45.568Z,11.80
2023-02-21T10:44:35.262Z,12.10
2023-02-21T10:47:20.194Z,12.00
2023-02-21T10:49:59.712Z,12.00
2023-02-21T10:52:27.049Z,12.10
2023-02-21T10:55:32.231Z,12.10
2023-02-21T10:58:09.572Z,12.10
2023-02-21T11:00:42.208Z,12.40
2023-02-21T11:03:27.914Z,12.60
2023-02-21T11:06:01.913Z,12.50
2023-02-21T11:08:43.974Z,12.70
2023-02-21T11:11:11.685Z,12.80
2023-02-21T11:13:39.278Z,12.90
2023-02-21T11:16:24.801Z,13.10
2023-02-21T11:19:08.600Z,13.10
2023-02-21T11:21:35.817Z,13.40
2023-02-21T11:24:06.621Z,13.40
2023-02-21T11:27:00.256Z,13.40
2023-02-21T11:29:27.430Z,13.60
2023-02-21T11:31:55.664Z,13.70
2023-02-21T11:34:29.772Z,13.80
2023-02-21T11:37:04.087Z,14.00
2023-02-21T11:39:34.964Z,14.10
2023-02-21T11:42:06.922Z,14.30
2023-02-21T11:44:39.945Z,14.50
2023-02-21T11:47:19.772Z,14.60
2023-02-21T11:50:04.625Z,14.60
2023-02-21T11:52:48.697Z,14.40
2023-02-21T11:55:19.832Z,14.90
2023-02-21T11:57:58.481Z,15.10
2023-02-21T12:00:40.646Z,15.50
2023-02-21T12:03:46.647Z,15.30
2023-02-21T12:06:29.208Z,15.50
2023-02-21T12:09:22.446Z,15.60
2023-02-21T12:12:02.380Z,15.20
2023-02-21T12:14:46.614Z,15.30
2023-02-21T12:17:35.410Z,15.80
2023-02-21T12:20:46.947Z,15.80
2023-02-21T12:23:25.679Z,15.70
2023-02-21T12:26:10.996Z,15.80
2023-02-21T12:29:00.336Z,15.90
2023-02-21T12:31:55.167Z,16.00
2023-02-21T12:34:53.915Z,16.30
2023-02-21T12:38:09.218Z,16.20
2023-02-21T12:41:07.090Z,16.30
2023-02-21T12:44:13.720Z,16.60
2023-02-21T12:46:56.108Z,16.60
2023-02-21T12:49:45.994Z,16.80
2023-02-21T12:52:32.187Z,16.80
2023-02-21T12:55:19.993Z,16.90
2023-02-21T12:58:14.649Z,17.00
2023-02-21T13:01:02.450Z,17.00
2023-02-21T13:03:40.935Z,17.10
2023-02-21T13:06:31.490Z,17.30
2023-02-21T13:09:02.200Z,17.20
2023-02-21T13:11:43.329Z,16.90
2023-02-21T13:14:17.057Z,17.10
2023-02-21T13:16:44.186Z,17.40
2023-02-21T13:19:13.822Z,17.40
2023-02-21T13:21:53.148Z,17.50
2023-02-21T13:24:39.814Z,17.50
2023-02-21T13:27:39.420Z,17.50
2023-02-21T13:30:38.428Z,17.70
2023-02-21T13:33:06.294Z,17.60
2023-02-21T13:35:38.700Z,18.10
2023-02-21T13:38:10.538Z,17.70
2023-02-21T13:41:02.883Z,17.90
2023-02-21T13:43:34.019Z,17.80
2023-02-21T13:46:31.446Z,18.00
2023-02-21T13:49:48.004Z,17.90
2023-02-21T13:52:23.586Z,17.80
2023-02-21T13:55:21.223Z,18.10
2023-02-21T13:57:57.617Z,18.20
2023-02-21T14:00:24.474Z,17.60
2023-02-21T14:02:59.127Z,17.90
2023-02-21T14:05:47.196Z,18.00
2023-02-21T14:08:44.012Z,18.20
2023-02-21T14:11:23.805Z,18.30
2023-02-21T14:13:55.421Z,18.00
2023-02-21T14:16:47.909Z,18.30
2023-02-21T14:19:35.833Z,17.90
2023-02-21T14:22:30.891Z,17.70
2023-02-21T14:25:18.457Z,18.00
2023-02-21T14:27:45.889Z,18.00
2023-02-21T14:30:12.949Z,17.80
2023-02-21T14:32:47.519Z,17.90
2023-02-21T14:35:20.199Z,18.00
2023-02-21T14:38:05.063Z,17.80
2023-02-21T14:40:34.925Z,17.60
2023-02-21T14:43:51.131Z,17.90
2023-02-21T14:46:51.483Z,17.70
2023-02-21T14:49:36.384Z,17.60
2023-02-21T14:52:37.868Z,18.10
2023-02-21T14:55:32.200Z,17.90
2023-02-21T14:58:15.213Z,18.00
2023-02-21T15:01:35.955Z,18.20
2023-02-21T15:04:15.832Z,18.20
2023-02-21T15:06:56.356Z,17.90
2023-02-21T15:09:23.656Z,17.90
2023-02-21T15:11:59.298Z,18.00
2023-02-21T15:14:39.009Z,18.10
2023-02-21T15:17:24.213Z,18.30
2023-02-21T15:20:15.013Z,18.00
2023-02-21T15:22:43.157Z,17.70
2023-02-21T15:25:10.131Z,17.60
2023-02-21T15:27:53.474Z,17.50
2023-02-21T15:30:35.530Z,17.60
2023-02-21T15:33:21.421Z,17.50
2023-02-21T15:35:56.089Z,17.80
2023-02-21T15:38:39.495Z,17.50
2023-02-21T15:41:16.144Z,17.30
2023-02-21T15:43:58.679Z,17.40
2023-02-21T15:46:43.723Z,17.50
2023-02-21T15:49:27.201Z,17.40
2023-02-21T15:51:54.708Z,17.30
2023-02-21T15:54:25.977Z,17.10
2023-02-21T15:57:09.695Z,16.90
2023-02-21T15:59:38.964Z,16.90
2023-02-21T16:02:13.548Z,17.00
2023-02-21T16:04:48.826Z,17.00
2023-02-21T16:07:30.443Z,17.10
2023-02-21T16:10:11.858Z,17.10
2023-02-21T16:12:46.898Z,17.20
2023-02-21T16:15:23.133Z,17.20
2023-02-21T16:18:01.520Z,17.20
2023-02-21T16:20:35.248Z,17.10
2023-02-21T16:23:21.076Z,17.00
2023-02-21T16:26:09.978Z,16.80
2023-02-21T16:28:39.745Z,16.40
2023-02-21T16:31:12.719Z,16.40
2023-02-21T16:33:39.975Z,16.20
2023-02-21T16:36:16.379Z,16.10
2023-02-21T16:38:43.359Z,15.80
2023-02-21T16:41:16.321Z,15.50
2023-02-21T16:43:43.490Z,15.30
2023-02-21T16:46:10.758Z,15.20
2023-02-21T16:48:37.776Z,15.10
2023-02-21T16:51:14.479Z,14.80
2023-02-21T16:53:43.284Z,14.80
2023-02-21T16:56:10.301Z,14.60
2023-02-21T16:58:41.927Z,14.50
2023-02-21T17:01:21.953Z,14.30
2023-02-21T17:04:00.650Z,13.50
2023-02-21T17:06:28.914Z,13.50
2023-02-21T17:08:56.926Z,13.30
2023-02-21T17:11:23.922Z,13.20
2023-02-21T17:13:51.253Z,13.10
2023-02-21T17:16:19.294Z,13.00
2023-02-21T17:18:46.953Z,12.90
2023-02-21T17:21:14.485Z,12.70
2023-02-21T17:23:43.031Z,12.60
2023-02-21T17:26:12.403Z,12.40
2023-02-21T17:28:39.978Z,12.30
2023-02-21T17:31:07.612Z,12.20
2023-02-21T17:33:35.712Z,12.10
2023-02-21T17:36:02.937Z,12.00
2023-02-21T17:38:30.511Z,11.90
2023-02-21T17:40:58.734Z,11.70
2023-02-21T17:43:25.807Z,11.50
2023-02-21T17:45:52.914Z,11.20
2023-02-21T17:48:20.292Z,11.20
2023-02-21T17:50:47.362Z,11.10
2023-02-21T17:53:14.690Z,11.00
2023-02-21T17:55:42.452Z,10.90
2023-02-21T17:58:10.409Z,10.90
2023-02-21T18:00:39.345Z,10.70
2023-02-21T18:03:07.627Z,10.40
2023-02-21T18:05:36.092Z,10.30
2023-02-21T18:08:04.013Z,10.20
2023-02-21T18:10:31.040Z,10.10
2023-02-21T18:12:58.417Z,10.20
2023-02-21T18:15:30.433Z,10.10
2023-02-21T18:18:04.792Z,10.00
2023-02-21T18:20:33.313Z,9.80
2023-02-21T18:23:03.241Z,9.80
2023-02-21T18:25:30.590Z,9.70
2023-02-21T18:27:58.192Z,9.70
2023-02-21T18:30:25.230Z,9.60
2023-02-21T18:32:52.556Z,9.60
2023-02-21T18:35:20.888Z,9.40
2023-02-21T18:37:48.896Z,9.30
2023-02-21T18:40:18.477Z,9.10
2023-02-21T18:42:46.444Z,9.00
2023-02-21T18:45:13.564Z,8.90
2023-02-21T18:47:40.897Z,8.90
2023-02-21T18:50:08.722Z,8.90
2023-02-21T18:52:35.783Z,8.70
2023-02-21T18:55:04.201Z,8.50
2023-02-21T18:57:31.859Z,8.60
2023-02-21T18:59:59.204Z,8.60
2023-02-21T19:02:27.172Z,8.60
2023-02-21T19:04:54.309Z,8.60
2023-02-21T19:07:21.390Z,8.50
2023-02-21T19:09:51.730Z,8.50
2023-02-21T19:12:18.933Z,8.30
2023-02-21T19:14:46.322Z,8.20
2023-02-21T19:17:13.448Z,8.20
2023-02-21T19:19:43.805Z,8.10
2023-02-21T19:22:10.810Z,8.10
2023-02-21T19:24:37.865Z,8.10
2023-02-21T19:27:04.929Z,8.20
2023-02-21T19:29:31.923Z,8.20
2023-02-21T19:31:59.111Z,8.30
2023-02-21T19:34:26.380Z,8.20
2023-02-21T19:36:53.393Z,8.10
2023-02-21T19:39:20.452Z,7.90
2023-02-21T19:41:47.637Z,7.80
2023-02-21T19:44:15.402Z,7.70
2023-02-21T19:46:42.460Z,7.60
2023-02-21T19:49:18.745Z,7.60
2023-02-21T19:51:49.028Z,7.70
2023-02-21T19:54:20.312Z,7.70
2023-02-21T19:56:50.086Z,7.70
2023-02-21T19:59:18.782Z,7.70
2023-02-21T20:01:46.265Z,7.60
2023-02-21T20:04:13.423Z,7.50
2023-02-21T20:06:40.506Z,7.40
2023-02-21T20:11:49.876Z,7.10
2023-02-21T20:14:17.773Z,7.10
2023-02-21T20:16:46.525Z,6.80
2023-02-21T20:19:15.038Z,6.80
2023-02-21T20:21:43.128Z,6.70
2023-02-21T20:24:10.991Z,6.60
2023-02-21T20:26:39.111Z,6.30
2023-02-21T20:29:08.960Z,6.30
2023-02-21T20:31:38.811Z,6.50
2023-02-21T20:34:06.993Z,6.50
2023-02-21T20:36:38.036Z,6.40
2023-02-21T20:39:07.103Z,6.40
2023-02-21T20:41:39.122Z,6.30
2023-02-21T20:44:07.298Z,6.10
2023-02-21T20:46:35.019Z,6.10
2023-02-21T20:49:03.366Z,6.00
2023-02-21T20:51:36.919Z,5.90
2023-02-21T20:54:04.854Z,5.80
2023-02-21T20:56:39.589Z,5.80
2023-02-21T20:59:15.827Z,5.80
2023-02-21T21:01:48.464Z,5.60
2023-02-21T21:04:22.098Z,5.50
2023-02-21T21:06:49.635Z,5.50
2023-02-21T21:09:18.171Z,5.40
2023-02-21T21:11:45.921Z,5.30
2023-02-21T21:14:16.606Z,5.30
2023-02-21T21:16:46.621Z,5.30
2023-02-21T21:19:13.713Z,5.40
2023-02-21T21:21:40.755Z,5.30
2023-02-21T21:24:07.955Z,5.30
2023-02-21T21:26:35.069Z,5.20
2023-02-21T21:29:02.087Z,5.30
2023-02-21T21:31:29.216Z,5.30
2023-02-21T21:33:56.499Z,5.40
2023-02-21T21:36:26.558Z,5.50
2023-02-21T21:38:53.645Z,5.30
2023-02-21T21:41:20.858Z,5.30
2023-02-21T21:43:48.444Z,5.30
2023-02-21T21:46:16.264Z,5.30
2023-02-21T21:48:44.633Z,5.40
2023-02-21T21:51:14.154Z,5.60
2023-02-21T21:53:41.614Z,5.40
2023-02-21T21:56:11.449Z,5.40
2023-02-21T21:58:38.440Z,5.30
2023-02-21T22:01:05.818Z,5.30
2023-02-21T22:03:34.810Z,5.40
2023-02-21T22:06:02.020Z,5.30
2023-02-21T22:08:29.658Z,5.20
2023-02-21T22:11:00.172Z,5.10
2023-02-21T22:13:29.549Z,5.00
2023-02-21T22:15:56.661Z,4.90
2023-02-21T22:18:24.146Z,4.70
2023-02-21T22:20:51.140Z,4.50
2023-02-21T22:23:26.743Z,4.40
2023-02-21T22:25:53.686Z,4.50
2023-02-21T22:28:20.633Z,4.40
2023-02-21T22:30:47.678Z,4.50
2023-02-21T22:33:18.806Z,4.60
2023-02-21T22:35:47.154Z,4.60
2023-02-21T22:38:17.225Z,4.60
2023-02-21T22:40:44.519Z,4.60
2023-02-21T22:43:13.654Z,4.60
2023-02-21T22:45:44.298Z,4.50
2023-02-21T22:48:11.693Z,4.50
2023-02-21T22:50:39.572Z,4.50
2023-02-21T22:53:13.018Z,4.50
2023-02-21T22:55:40.133Z,4.40
2023-02-21T22:58:09.519Z,4.30
2023-02-21T23:00:37.919Z,4.10
2023-02-21T23:03:14.672Z,4.10
2023-02-21T23:05:47.791Z,4.10
2023-02-21T23:08:20.681Z,4.20
2023-02-21T23:10:48.664Z,4.20
2023-02-21T23:13:20.854Z,4.20
2023-02-21T23:15:49.549Z,4.20
2023-02-21T23:18:24.086Z,4.20
2023-02-21T23:20:57.260Z,4.10
2023-02-21T23:23:28.636Z,4.00
2023-02-21T23:25:59.359Z,3.80
2023-02-21T23:28:31.756Z,3.70
2023-02-21T23:30:58.702Z,3.70
2023-02-21T23:33:29.595Z,3.60
2023-02-21T23:35:57.864Z,3.50
2023-02-21T23:38:28.252Z,3.60
2023-02-21T23:40:58.830Z,3.50
2023-02-21T23:43:30.248Z,3.50
2023-02-21T23:45:59.103Z,3.40
2023-02-21T23:48:26.451Z,3.50
2023-02-21T23:50:57.735Z,3.50
2023-02-21T23:53:27.652Z,3.30
2023-02-21T23:55:57.650Z,3.40
2023-02-21T23:58:29.037Z,3.30
